Time;durP1;ratioP1;P1;durP2;ratioP2;P2;SDS_P1;SDS_P2;PMS_P1;PMS_P2;Temp;Humidity;BMP_temperature;BMP_pressure;BME280_temperature;BME280_humidity;BME280_pressure;Samples;Min_cycle;Max_cycle;Signal;HPM_P1;HPM_P2
2023/12/19 00:01:06;;;;;;;13.50;12.90;;;2.60;99.90;;;;;;5122072;28;20217;-62
2023/12/19 00:03:34;;;;;;;12.47;12.03;;;2.60;99.90;;;;;;5115198;28;20197;-63
2023/12/19 00:06:01;;;;;;;12.30;11.80;;;2.60;99.90;;;;;;5122474;28;20205;-63
2023/12/19 00:08:28;;;;;;;11.87;11.47;;;2.60;99.90;;;;;;5117286;28;20228;-62
2023/12/19 00:10:54;;;;;;;13.40;12.80;;;2.70;99.90;;;;;;5118766;28;20328;-63
2023/12/19 00:13:21;;;;;;;11.50;11.10;;;2.70;99.90;;;;;;5113024;28;20202;-64
2023/12/19 00:15:48;;;;;;;11.97;11.57;;;2.80;99.90;;;;;;5111469;28;20664;-63
2023/12/19 00:18:14;;;;;;;12.40;11.90;;;2.80;99.90;;;;;;5117317;27;20237;-62
2023/12/19 00:20:43;;;;;;;12.53;12.03;;;2.90;99.90;;;;;;5115063;27;20202;-62
2023/12/19 00:23:09;;;;;;;12.27;11.87;;;2.90;99.90;;;;;;5117090;27;20206;-62
2023/12/19 00:25:36;;;;;;;12.67;12.17;;;3.00;99.90;;;;;;5114489;28;20209;-61
2023/12/19 00:28:03;;;;;;;12.83;12.33;;;3.00;99.90;;;;;;5114801;28;20232;-63
2023/12/19 00:30:30;;;;;;;11.80;11.40;;;3.00;99.90;;;;;;5114667;28;20232;-62
2023/12/19 00:32:57;;;;;;;12.87;12.37;;;2.90;99.90;;;;;;5114621;28;20239;-62
2023/12/19 00:35:24;;;;;;;12.40;12.00;;;2.90;99.90;;;;;;5116541;27;20198;-62
2023/12/19 00:37:52;;;;;;;12.13;11.63;;;2.90;99.90;;;;;;5115439;27;20221;-62
2023/12/19 00:40:18;;;;;;;12.17;11.73;;;2.90;99.90;;;;;;5119011;27;20213;-62
2023/12/19 00:42:45;;;;;;;12.57;12.07;;;2.90;99.90;;;;;;5117540;27;20554;-62
2023/12/19 00:45:12;;;;;;;11.70;11.30;;;2.90;99.90;;;;;;5114961;27;20209;-62
2023/12/19 00:47:39;;;;;;;12.70;12.20;;;2.90;99.90;;;;;;5118117;27;20205;-61
2023/12/19 00:50:08;;;;;;;12.03;11.63;;;3.00;99.90;;;;;;5112079;27;20225;-63
2023/12/19 00:52:35;;;;;;;11.43;11.03;;;3.00;99.90;;;;;;5113374;28;20251;-61
2023/12/19 00:55:04;;;;;;;11.97;11.50;;;3.00;99.90;;;;;;5118698;27;20237;-61
2023/12/19 00:57:31;;;;;;;12.57;12.10;;;3.00;99.90;;;;;;5111042;28;20202;-62
2023/12/19 00:59:57;;;;;;;12.40;11.90;;;2.90;99.90;;;;;;5113961;28;20202;-64
2023/12/19 01:02:24;;;;;;;12.80;12.30;;;2.80;99.90;;;;;;5117559;27;20209;-61
2023/12/19 01:04:50;;;;;;;11.93;11.53;;;2.80;99.90;;;;;;5113881;28;20568;-62
2023/12/19 01:07:17;;;;;;;12.37;11.80;;;2.80;99.90;;;;;;5112923;28;20209;-62
2023/12/19 01:09:43;;;;;;;11.53;11.13;;;2.70;99.90;;;;;;5114303;28;20224;-62
2023/12/19 01:12:12;;;;;;;12.33;11.93;;;2.70;99.90;;;;;;5118045;27;20583;-63
2023/12/19 01:14:39;;;;;;;11.57;11.17;;;2.80;99.90;;;;;;5113587;28;20229;-63
2023/12/19 01:17:06;;;;;;;11.87;11.47;;;2.80;99.90;;;;;;5125423;28;20220;-63
2023/12/19 01:19:33;;;;;;;12.30;11.83;;;2.80;99.90;;;;;;5115419;28;20232;-63
2023/12/19 01:22:00;;;;;;;12.00;11.50;;;2.80;99.90;;;;;;5114139;28;20212;-63
2023/12/19 01:24:26;;;;;;;11.10;10.70;;;2.90;99.90;;;;;;5114804;27;20580;-63
2023/12/19 01:26:53;;;;;;;11.60;11.20;;;2.90;99.90;;;;;;5118561;27;20209;-62
2023/12/19 01:29:22;;;;;;;11.00;10.60;;;3.00;99.90;;;;;;5112842;28;20226;-63
2023/12/19 01:31:49;;;;;;;11.80;11.37;;;3.00;99.90;;;;;;5113439;28;20220;-63
2023/12/19 01:34:16;;;;;;;10.97;10.57;;;3.00;99.90;;;;;;5117734;27;20206;-63
2023/12/19 01:36:42;;;;;;;10.77;10.37;;;3.10;99.90;;;;;;5113131;28;20220;-63
2023/12/19 01:39:09;;;;;;;11.07;10.63;;;3.10;99.90;;;;;;5110366;28;20590;-63
2023/12/19 01:41:36;;;;;;;10.90;10.50;;;3.10;99.90;;;;;;5114923;27;20217;-62
2023/12/19 01:44:03;;;;;;;11.57;11.17;;;3.10;99.90;;;;;;5113753;27;20202;-61
2023/12/19 01:46:31;;;;;;;11.07;10.67;;;3.00;99.90;;;;;;5112187;28;20217;-63
2023/12/19 01:49:00;;;;;;;11.00;10.60;;;3.00;99.90;;;;;;5104316;28;20620;-62
2023/12/19 01:51:27;;;;;;;11.23;10.83;;;2.90;99.90;;;;;;5113389;27;20296;-63
2023/12/19 01:53:54;;;;;;;11.23;10.83;;;2.90;99.90;;;;;;5111287;27;20211;-63
2023/12/19 01:56:22;;;;;;;11.43;11.03;;;2.90;99.90;;;;;;5118199;27;20217;-62
2023/12/19 01:58:49;;;;;;;12.27;11.77;;;2.90;99.90;;;;;;5113065;27;20222;-61
2023/12/19 02:01:17;;;;;;;12.20;11.80;;;2.80;99.90;;;;;;5114035;27;20206;-62
2023/12/19 02:03:47;;;;;;;11.37;10.97;;;2.70;99.90;;;;;;5115695;27;20216;-62
2023/12/19 02:06:14;;;;;;;11.70;11.30;;;2.70;99.90;;;;;;5110672;28;20213;-63
2023/12/19 02:08:41;;;;;;;11.90;11.50;;;2.80;99.90;;;;;;5114036;27;20222;-61
2023/12/19 02:13:48;;;;;;;11.73;11.33;;;2.70;99.90;;;;;;5068837;28;20699;-63
2023/12/19 02:19:45;;;;;;;11.77;11.37;;;2.70;99.90;;;;;;5062388;28;20268;-62
2023/12/19 02:22:12;;;;;;;11.93;11.53;;;2.70;99.90;;;;;;5066040;28;20203;-64
2023/12/19 02:24:40;;;;;;;11.87;11.47;;;2.80;99.90;;;;;;5070080;28;20622;-62
2023/12/19 02:27:08;;;;;;;11.57;11.17;;;2.70;99.90;;;;;;5069140;28;20442;-62
2023/12/19 02:29:35;;;;;;;11.80;11.40;;;2.70;99.90;;;;;;5071190;28;20235;-63
2023/12/19 02:32:02;;;;;;;11.43;11.03;;;2.70;99.90;;;;;;5070187;28;20211;-63
2023/12/19 02:34:29;;;;;;;11.30;10.90;;;2.70;99.90;;;;;;5069945;28;20215;-62
2023/12/19 02:36:56;;;;;;;11.90;11.50;;;2.70;99.90;;;;;;5070724;28;20620;-63
2023/12/19 02:39:23;;;;;;;11.77;11.37;;;2.70;99.90;;;;;;5071028;28;20234;-63
2023/12/19 02:41:51;;;;;;;12.40;11.90;;;2.70;99.90;;;;;;5070762;28;20204;-63
2023/12/19 02:44:18;;;;;;;11.90;11.50;;;2.70;99.90;;;;;;5086772;28;20206;-63
2023/12/19 02:46:44;;;;;;;12.20;11.80;;;2.60;99.90;;;;;;5115834;28;20201;-63
2023/12/19 02:49:11;;;;;;;12.20;11.80;;;2.50;99.90;;;;;;5115248;28;20229;-63
2023/12/19 02:51:38;;;;;;;12.17;11.67;;;2.50;99.90;;;;;;5110212;28;20201;-61
2023/12/19 02:54:04;;;;;;;12.80;12.30;;;2.50;99.90;;;;;;5112997;28;20217;-62
2023/12/19 02:56:32;;;;;;;12.27;11.87;;;2.40;99.90;;;;;;5113976;28;20618;-63
2023/12/19 02:59:00;;;;;;;12.00;11.60;;;2.40;99.90;;;;;;5130436;28;20217;-63
2023/12/19 03:01:26;;;;;;;12.37;11.97;;;2.50;99.90;;;;;;5118984;28;20208;-63
2023/12/19 03:03:54;;;;;;;12.27;11.87;;;2.40;99.90;;;;;;5113786;28;20238;-62
2023/12/19 03:06:20;;;;;;;12.30;11.80;;;2.40;99.90;;;;;;5112658;28;20762;-63
2023/12/19 03:08:48;;;;;;;11.77;11.37;;;2.40;99.90;;;;;;5112740;27;20252;-62
2023/12/19 03:11:15;;;;;;;12.33;11.83;;;2.40;99.90;;;;;;5110764;27;20588;-62
2023/12/19 03:13:42;;;;;;;12.30;11.90;;;2.30;99.90;;;;;;5112185;28;20206;-62
2023/12/19 03:16:10;;;;;;;12.37;11.97;;;2.30;99.90;;;;;;5111718;28;20206;-62
2023/12/19 03:18:37;;;;;;;13.07;12.57;;;2.30;99.90;;;;;;5106746;28;20245;-62
2023/12/19 03:21:04;;;;;;;15.47;14.77;;;2.20;99.90;;;;;;5111869;28;20205;-63
2023/12/19 03:23:30;;;;;;;13.40;12.90;;;2.10;99.90;;;;;;5111416;28;20719;-64
2023/12/19 03:25:57;;;;;;;12.67;12.17;;;2.10;99.90;;;;;;5111991;28;20212;-62
2023/12/19 03:28:24;;;;;;;13.30;12.80;;;2.00;99.90;;;;;;5111199;28;20218;-64
2023/12/19 03:30:51;;;;;;;12.53;12.07;;;1.90;99.90;;;;;;5111182;28;20226;-62
2023/12/19 03:33:19;;;;;;;12.17;11.67;;;2.00;99.90;;;;;;5111114;28;20210;-64
2023/12/19 03:35:45;;;;;;;12.93;12.43;;;2.00;99.90;;;;;;5111137;28;20202;-63
2023/12/19 03:38:12;;;;;;;13.00;12.50;;;2.10;99.90;;;;;;5107995;28;20222;-62
2023/12/19 03:40:39;;;;;;;12.63;12.13;;;2.10;99.90;;;;;;5111831;28;20209;-62
2023/12/19 03:43:06;;;;;;;12.33;11.83;;;2.20;99.90;;;;;;5115569;28;20216;-62
2023/12/19 03:45:33;;;;;;;12.73;12.23;;;2.20;99.90;;;;;;5114803;28;20204;-62
2023/12/19 03:47:59;;;;;;;12.33;11.83;;;2.20;99.90;;;;;;5113698;28;20233;-63
2023/12/19 03:50:27;;;;;;;12.43;11.93;;;2.20;99.90;;;;;;5111740;28;20591;-62
2023/12/19 03:52:54;;;;;;;13.20;12.70;;;2.10;99.90;;;;;;5115753;28;20202;-63
2023/12/19 03:55:21;;;;;;;13.00;12.50;;;2.00;99.90;;;;;;5115464;28;20205;-62
2023/12/19 03:57:47;;;;;;;12.20;11.80;;;2.00;99.90;;;;;;5115090;28;20206;-63
2023/12/19 04:00:15;;;;;;;13.13;12.63;;;1.90;99.90;;;;;;5115030;28;20209;-62
2023/12/19 04:02:42;;;;;;;14.27;13.77;;;1.90;99.90;;;;;;5115135;28;20204;-63
2023/12/19 04:05:09;;;;;;;13.97;13.40;;;1.90;99.90;;;;;;5115402;28;20213;-62
2023/12/19 04:07:37;;;;;;;13.73;13.23;;;1.90;99.90;;;;;;5114769;28;20206;-62
2023/12/19 04:10:04;;;;;;;14.10;13.60;;;1.80;99.90;;;;;;5114489;28;20708;-62
2023/12/19 04:12:31;;;;;;;13.07;12.57;;;1.80;99.90;;;;;;5112952;28;20207;-62
2023/12/19 04:14:57;;;;;;;14.20;13.60;;;1.70;99.90;;;;;;5113765;28;20573;-62
2023/12/19 04:17:24;;;;;;;14.10;13.50;;;1.60;99.90;;;;;;5115460;27;20221;-62
2023/12/19 04:19:51;;;;;;;12.87;12.37;;;1.50;99.90;;;;;;5121999;27;20225;-63
2023/12/19 04:22:17;;;;;;;13.43;12.93;;;1.50;99.90;;;;;;5113197;28;20206;-62
2023/12/19 04:24:45;;;;;;;12.77;12.27;;;1.50;99.90;;;;;;5112662;28;20237;-63
2023/12/19 04:27:12;;;;;;;12.63;12.13;;;1.60;99.90;;;;;;5111318;28;20202;-61
2023/12/19 04:29:39;;;;;;;12.70;12.20;;;1.60;99.90;;;;;;5117710;27;20226;-64
2023/12/19 04:32:07;;;;;;;12.70;12.20;;;1.60;99.90;;;;;;5114338;28;20201;-61
2023/12/19 04:34:34;;;;;;;11.90;11.50;;;1.60;99.90;;;;;;5111120;27;20205;-63
2023/12/19 04:37:00;;;;;;;12.00;11.60;;;1.70;99.90;;;;;;5113121;28;20202;-64
2023/12/19 04:39:27;;;;;;;12.30;11.80;;;1.60;99.90;;;;;;5109629;27;20225;-62
2023/12/19 04:41:55;;;;;;;12.13;11.63;;;1.60;99.90;;;;;;5125904;28;20198;-63
2023/12/19 04:44:22;;;;;;;11.47;11.00;;;1.70;99.90;;;;;;5131041;27;20210;-62
2023/12/19 04:46:49;;;;;;;12.10;11.60;;;1.70;99.90;;;;;;5109202;28;20198;-62
2023/12/19 04:49:16;;;;;;;11.60;11.10;;;1.70;99.90;;;;;;5115806;27;20226;-63
2023/12/19 04:51:43;;;;;;;12.47;11.97;;;1.70;99.90;;;;;;5119275;27;20716;-63
2023/12/19 04:54:09;;;;;;;12.00;11.50;;;1.80;99.90;;;;;;5110976;28;20483;-62
2023/12/19 04:56:36;;;;;;;11.53;11.13;;;1.80;99.90;;;;;;5114229;27;20209;-63
2023/12/19 04:59:04;;;;;;;12.43;11.93;;;1.80;99.90;;;;;;5115115;27;20286;-62
2023/12/19 05:01:31;;;;;;;12.47;11.97;;;1.90;99.90;;;;;;5112142;27;20220;-62
2023/12/19 05:03:58;;;;;;;12.53;12.03;;;2.00;99.90;;;;;;5107822;28;20210;-62
2023/12/19 05:06:24;;;;;;;12.70;12.20;;;2.00;99.90;;;;;;5109746;28;20206;-62
2023/12/19 05:08:51;;;;;;;12.87;12.37;;;2.00;99.90;;;;;;5114039;28;20602;-64
2023/12/19 05:11:18;;;;;;;12.30;11.80;;;1.90;99.90;;;;;;5108524;28;20233;-63
2023/12/19 05:13:45;;;;;;;12.80;12.30;;;1.90;99.90;;;;;;5106628;27;20554;-63
2023/12/19 05:16:14;;;;;;;12.67;12.17;;;1.80;99.90;;;;;;5114227;28;20260;-61
2023/12/19 05:18:41;;;;;;;12.60;12.10;;;1.90;99.90;;;;;;5114198;27;20230;-63
2023/12/19 05:21:08;;;;;;;12.47;11.97;;;1.90;99.90;;;;;;5110381;28;20274;-62
2023/12/19 05:23:35;;;;;;;12.17;11.77;;;1.90;99.90;;;;;;5118881;27;20206;-63
2023/12/19 05:26:02;;;;;;;12.77;12.27;;;2.00;99.90;;;;;;5112618;27;20212;-63
2023/12/19 05:28:28;;;;;;;12.93;12.33;;;2.20;99.90;;;;;;5110971;27;20237;-63
2023/12/19 05:30:56;;;;;;;13.13;12.60;;;2.20;99.90;;;;;;5114083;27;20233;-63
2023/12/19 05:33:25;;;;;;;12.90;12.40;;;2.30;99.90;;;;;;5110898;28;20551;-65
2023/12/19 05:35:51;;;;;;;12.07;11.57;;;2.20;99.90;;;;;;5109335;27;20205;-66
2023/12/19 05:38:18;;;;;;;12.70;12.20;;;2.20;99.90;;;;;;5111909;27;20296;-66
2023/12/19 05:40:45;;;;;;;12.03;11.57;;;2.40;99.90;;;;;;5114622;28;20205;-67
2023/12/19 05:43:13;;;;;;;11.53;11.10;;;2.30;99.90;;;;;;5107829;28;20213;-65
2023/12/19 05:45:40;;;;;;;12.30;11.80;;;2.20;99.90;;;;;;5109292;28;20205;-64
2023/12/19 05:48:08;;;;;;;12.00;11.60;;;2.10;99.90;;;;;;5109585;28;20218;-64
2023/12/19 05:50:36;;;;;;;13.07;12.57;;;2.10;99.90;;;;;;5110846;27;20218;-66
2023/12/19 05:53:02;;;;;;;12.90;12.40;;;2.00;99.90;;;;;;5111300;27;20297;-64
2023/12/19 05:55:29;;;;;;;13.00;12.40;;;1.90;99.90;;;;;;5113487;27;20205;-65
2023/12/19 05:57:56;;;;;;;12.00;11.53;;;1.90;99.90;;;;;;5114373;27;20226;-64
2023/12/19 06:00:23;;;;;;;12.47;11.97;;;1.90;99.90;;;;;;5111509;27;20201;-64
2023/12/19 06:02:50;;;;;;;12.60;12.10;;;1.90;99.90;;;;;;5113060;27;20206;-65
2023/12/19 06:05:18;;;;;;;12.90;12.40;;;1.80;99.90;;;;;;5107943;27;20210;-64
2023/12/19 06:07:46;;;;;;;13.83;13.33;;;1.60;99.90;;;;;;5113729;27;20213;-64
2023/12/19 06:10:14;;;;;;;14.43;13.63;;;1.50;99.90;;;;;;5110032;28;20201;-64
2023/12/19 06:12:41;;;;;;;14.07;13.47;;;1.40;99.90;;;;;;5113528;28;20207;-65
2023/12/19 06:15:11;;;;;;;13.47;12.87;;;1.30;99.90;;;;;;5113673;27;20227;-64
2023/12/19 06:17:41;;;;;;;13.40;12.90;;;1.20;99.90;;;;;;5112828;27;20826;-65
2023/12/19 06:20:09;;;;;;;14.13;13.53;;;1.00;99.90;;;;;;5114264;28;20596;-64
2023/12/19 06:22:37;;;;;;;13.77;13.17;;;0.90;99.90;;;;;;5115673;27;20201;-65
2023/12/19 06:25:06;;;;;;;16.00;15.30;;;0.80;99.90;;;;;;5111839;28;20863;-65
2023/12/19 06:27:34;;;;;;;15.93;15.23;;;0.70;99.90;;;;;;5123837;28;20206;-65
2023/12/19 06:30:00;;;;;;;15.17;14.57;;;0.60;99.90;;;;;;5119263;27;20201;-64
2023/12/19 06:32:27;;;;;;;16.73;16.03;;;0.70;99.90;;;;;;5118106;27;20233;-64
2023/12/19 06:34:55;;;;;;;16.93;16.20;;;0.70;99.90;;;;;;5111862;28;20205;-65
2023/12/19 06:37:21;;;;;;;16.00;15.27;;;0.80;99.90;;;;;;5107654;28;20206;-64
2023/12/19 06:39:48;;;;;;;13.70;13.13;;;0.90;99.90;;;;;;5113871;28;20222;-65
2023/12/19 06:42:16;;;;;;;14.10;13.50;;;1.00;99.90;;;;;;5115039;28;20202;-66
2023/12/19 06:44:43;;;;;;;14.67;14.07;;;1.20;99.90;;;;;;5115951;28;20198;-65
2023/12/19 06:47:10;;;;;;;14.27;13.67;;;1.20;99.90;;;;;;5124107;27;20225;-65
2023/12/19 06:49:36;;;;;;;14.40;13.73;;;1.30;99.90;;;;;;5120869;28;20218;-64
2023/12/19 06:52:03;;;;;;;14.03;13.43;;;1.30;99.90;;;;;;5124367;27;20670;-65
2023/12/19 06:54:32;;;;;;;15.07;14.43;;;1.30;99.90;;;;;;5117727;28;20201;-64
2023/12/19 06:56:58;;;;;;;14.70;14.10;;;1.30;99.90;;;;;;5113346;27;20259;-64
2023/12/19 06:59:27;;;;;;;13.87;13.27;;;1.30;99.90;;;;;;5107703;28;20257;-64
2023/12/19 07:01:54;;;;;;;13.90;13.30;;;1.30;99.90;;;;;;5108085;28;20947;-65
2023/12/19 07:04:21;;;;;;;13.17;12.57;;;1.40;99.90;;;;;;5112783;27;20202;-65
2023/12/19 07:06:47;;;;;;;12.97;12.47;;;1.50;99.90;;;;;;5110252;28;20198;-64
2023/12/19 07:09:15;;;;;;;13.77;13.17;;;1.50;99.90;;;;;;5112790;27;20225;-64
2023/12/19 07:11:41;;;;;;;14.00;13.40;;;1.40;99.90;;;;;;5114986;27;20225;-64
2023/12/19 07:14:08;;;;;;;13.53;12.93;;;1.50;99.90;;;;;;5119626;27;20282;-63
2023/12/19 07:16:36;;;;;;;13.47;12.87;;;1.50;99.90;;;;;;5120111;27;20338;-65
2023/12/19 07:19:04;;;;;;;13.63;13.03;;;1.60;99.90;;;;;;5108903;28;20226;-64
2023/12/19 07:21:31;;;;;;;13.47;12.90;;;1.60;99.90;;;;;;5108840;28;20206;-65
2023/12/19 07:23:59;;;;;;;13.63;13.03;;;1.70;99.90;;;;;;5103904;28;20210;-65
2023/12/19 07:26:27;;;;;;;14.93;14.33;;;1.70;99.90;;;;;;5111006;28;20580;-65
2023/12/19 07:28:57;;;;;;;15.10;14.47;;;1.70;99.90;;;;;;5107831;27;20253;-64
2023/12/19 07:31:24;;;;;;;14.30;13.70;;;1.60;99.90;;;;;;5108091;28;20235;-64
2023/12/19 07:33:55;;;;;;;14.67;13.97;;;1.50;99.90;;;;;;5111638;28;20202;-64
2023/12/19 07:36:22;;;;;;;14.60;14.00;;;1.50;99.90;;;;;;5111296;28;20247;-65
2023/12/19 07:38:49;;;;;;;14.23;13.63;;;1.40;99.90;;;;;;5108945;28;20324;-64
2023/12/19 07:41:16;;;;;;;13.47;12.87;;;1.40;99.90;;;;;;5112673;28;20243;-65
2023/12/19 07:43:43;;;;;;;13.93;13.33;;;1.40;99.90;;;;;;5117031;27;20202;-64
2023/12/19 07:46:09;;;;;;;14.73;14.13;;;1.40;99.90;;;;;;5113593;28;20703;-65
2023/12/19 07:48:37;;;;;;;16.97;16.17;;;1.40;99.90;;;;;;5106129;28;20217;-64
2023/12/19 07:51:05;;;;;;;15.13;14.43;;;1.30;99.90;;;;;;5105893;28;20209;-64
2023/12/19 07:53:32;;;;;;;14.87;14.17;;;1.30;99.90;;;;;;5106431;28;20293;-64
2023/12/19 07:56:03;;;;;;;15.77;15.03;;;1.30;99.90;;;;;;5104612;28;20837;-64
2023/12/19 07:58:30;;;;;;;14.13;13.53;;;1.30;99.90;;;;;;5111049;28;20313;-65
2023/12/19 08:00:57;;;;;;;16.07;15.27;;;1.40;99.90;;;;;;5109607;28;20234;-64
2023/12/19 08:03:24;;;;;;;13.87;13.27;;;1.40;99.90;;;;;;5109498;28;20699;-66
2023/12/19 08:05:53;;;;;;;13.73;13.13;;;1.50;99.90;;;;;;5110459;28;20217;-64
2023/12/19 08:08:22;;;;;;;14.97;14.27;;;1.60;99.90;;;;;;5109061;28;20233;-64
2023/12/19 08:10:49;;;;;;;13.93;13.33;;;1.60;99.90;;;;;;5114196;28;20267;-64
2023/12/19 08:13:19;;;;;;;15.57;14.87;;;1.70;99.90;;;;;;5115072;28;20661;-64
2023/12/19 08:15:46;;;;;;;14.70;14.00;;;1.80;99.90;;;;;;5114079;28;20285;-64
2023/12/19 08:18:14;;;;;;;14.57;13.97;;;1.80;99.90;;;;;;5111625;28;20237;-68
2023/12/19 08:20:41;;;;;;;15.20;14.50;;;1.90;99.90;;;;;;5115246;28;20202;-64
2023/12/19 08:23:08;;;;;;;14.73;14.13;;;2.10;99.90;;;;;;5110360;28;20666;-64
2023/12/19 08:25:37;;;;;;;14.90;14.30;;;2.20;99.90;;;;;;5113109;28;20241;-65
2023/12/19 08:28:05;;;;;;;14.83;14.23;;;2.20;99.90;;;;;;5115357;28;20295;-63
2023/12/19 08:30:32;;;;;;;15.40;14.70;;;2.30;99.90;;;;;;5111486;28;20254;-64
2023/12/19 08:32:59;;;;;;;12.90;12.40;;;2.40;99.90;;;;;;5110111;28;20223;-64
2023/12/19 08:35:26;;;;;;;13.73;13.13;;;2.40;99.90;;;;;;5115397;28;20607;-64
2023/12/19 08:37:53;;;;;;;13.00;12.50;;;2.60;99.90;;;;;;5108012;28;20638;-64
2023/12/19 08:40:21;;;;;;;13.67;13.07;;;2.60;99.90;;;;;;5114525;27;20218;-64
2023/12/19 08:42:49;;;;;;;13.77;13.17;;;2.70;99.90;;;;;;5112830;27;20251;-64
2023/12/19 08:45:17;;;;;;;14.80;14.20;;;2.90;99.90;;;;;;5110928;27;20206;-64
2023/12/19 08:47:44;;;;;;;14.30;13.70;;;2.90;99.90;;;;;;5119232;27;20584;-64
2023/12/19 08:50:12;;;;;;;14.70;14.10;;;2.90;99.90;;;;;;5109100;28;20205;-65
2023/12/19 08:52:41;;;;;;;14.03;13.43;;;2.90;99.90;;;;;;5118126;27;20253;-64
2023/12/19 08:55:08;;;;;;;13.93;13.33;;;2.90;99.90;;;;;;5125767;27;20264;-64
2023/12/19 08:57:35;;;;;;;13.83;13.27;;;2.90;99.90;;;;;;5126072;27;20202;-65
2023/12/19 09:00:04;;;;;;;14.00;13.40;;;2.90;99.90;;;;;;5120534;28;20198;-64
2023/12/19 09:02:30;;;;;;;14.60;14.00;;;3.00;99.90;;;;;;5121423;27;20468;-64
2023/12/19 09:04:57;;;;;;;13.93;13.33;;;3.10;99.90;;;;;;5125513;27;20214;-65
2023/12/19 09:07:24;;;;;;;12.53;12.03;;;3.30;99.90;;;;;;5112544;28;20228;-64
2023/12/19 09:09:54;;;;;;;12.93;12.33;;;3.50;99.90;;;;;;5114213;27;20226;-65
2023/12/19 09:12:21;;;;;;;12.43;11.93;;;3.60;99.90;;;;;;5109364;27;20222;-64
2023/12/19 09:14:48;;;;;;;12.90;12.40;;;3.60;99.90;;;;;;5113200;27;20197;-64
2023/12/19 09:17:16;;;;;;;13.07;12.47;;;3.60;99.90;;;;;;5114478;27;20214;-64
2023/12/19 09:19:42;;;;;;;13.07;12.57;;;3.60;99.90;;;;;;5112448;28;20702;-65
2023/12/19 09:22:09;;;;;;;12.97;12.47;;;3.70;99.90;;;;;;5114928;27;20198;-64
2023/12/19 09:24:36;;;;;;;12.17;11.73;;;3.80;99.90;;;;;;5112811;28;20206;-64
2023/12/19 09:27:03;;;;;;;11.80;11.30;;;3.90;99.90;;;;;;5111461;28;20202;-65
2023/12/19 09:29:30;;;;;;;13.10;12.57;;;4.00;99.90;;;;;;5115315;27;20310;-64
2023/12/19 09:32:00;;;;;;;13.03;12.53;;;4.20;99.90;;;;;;5108750;28;20229;-65
2023/12/19 09:34:29;;;;;;;12.87;12.37;;;4.30;99.90;;;;;;5113485;27;20285;-65
2023/12/19 09:36:55;;;;;;;12.73;12.23;;;4.50;99.90;;;;;;5119888;28;20217;-64
2023/12/19 09:39:23;;;;;;;13.03;12.53;;;4.60;99.90;;;;;;5118848;27;20222;-65
2023/12/19 09:41:50;;;;;;;13.27;12.67;;;4.60;99.90;;;;;;5117509;27;20238;-65
2023/12/19 09:44:17;;;;;;;13.00;12.50;;;4.70;99.90;;;;;;5111802;27;20746;-64
2023/12/19 09:46:49;;;;;;;14.03;13.43;;;4.80;99.90;;;;;;5113235;27;20210;-66
2023/12/19 09:49:20;;;;;;;14.33;13.73;;;4.80;99.90;;;;;;5122398;27;20245;-66
2023/12/19 09:51:52;;;;;;;14.37;13.77;;;4.60;99.90;;;;;;5128141;27;20588;-66
2023/12/19 09:54:20;;;;;;;14.50;13.90;;;4.50;99.90;;;;;;5114042;27;20190;-65
2023/12/19 09:56:47;;;;;;;13.07;12.57;;;4.60;99.90;;;;;;5118853;27;20258;-66
2023/12/19 09:59:16;;;;;;;13.60;13.03;;;4.50;99.90;;;;;;5113906;28;20222;-66
2023/12/19 10:01:43;;;;;;;13.77;13.17;;;4.50;99.90;;;;;;5116011;27;20198;-65
2023/12/19 10:04:13;;;;;;;13.70;13.20;;;4.50;99.90;;;;;;5115876;27;20209;-66
2023/12/19 10:06:40;;;;;;;16.47;15.67;;;4.40;99.90;;;;;;5108351;28;20202;-65
2023/12/19 10:09:10;;;;;;;13.73;13.13;;;4.40;99.90;;;;;;5115393;27;20222;-65
2023/12/19 10:11:38;;;;;;;13.17;12.57;;;4.30;99.90;;;;;;5114091;27;20344;-65
2023/12/19 10:14:10;;;;;;;13.00;12.47;;;4.20;99.90;;;;;;5112530;27;20209;-65
2023/12/19 10:16:40;;;;;;;13.10;12.60;;;4.10;99.90;;;;;;5108810;28;20213;-64
2023/12/19 10:19:08;;;;;;;13.10;12.60;;;4.10;99.90;;;;;;5107611;27;20253;-65
2023/12/19 10:21:36;;;;;;;12.63;12.13;;;4.10;99.90;;;;;;5112789;27;20222;-66
2023/12/19 10:24:11;;;;;;;12.10;11.60;;;4.00;99.90;;;;;;5112025;27;20622;-65
2023/12/19 10:26:39;;;;;;;11.93;11.43;;;4.00;99.90;;;;;;5114024;28;20217;-66
2023/12/19 10:29:06;;;;;;;13.07;12.57;;;4.10;99.90;;;;;;5114097;27;20218;-65
2023/12/19 10:31:34;;;;;;;12.90;12.40;;;4.10;99.90;;;;;;5112038;28;20267;-65
2023/12/19 10:34:01;;;;;;;13.23;12.73;;;4.10;99.90;;;;;;5109434;28;20747;-66
2023/12/19 10:36:28;;;;;;;12.60;12.10;;;4.10;99.90;;;;;;5111951;28;20230;-65
2023/12/19 10:38:56;;;;;;;12.77;12.27;;;4.20;99.90;;;;;;5110703;28;20229;-67
2023/12/19 10:41:26;;;;;;;12.63;12.13;;;4.20;99.90;;;;;;5108048;28;20202;-65
2023/12/19 10:43:56;;;;;;;12.60;12.10;;;4.30;99.90;;;;;;5117403;27;20202;-66
2023/12/19 10:46:25;;;;;;;12.60;12.10;;;4.40;99.90;;;;;;5113663;27;21085;-65
2023/12/19 10:48:53;;;;;;;13.63;13.03;;;4.50;99.90;;;;;;5122218;27;20217;-64
2023/12/19 10:51:29;;;;;;;13.00;12.50;;;4.40;99.90;;;;;;5113212;27;20226;-65
2023/12/19 10:54:06;;;;;;;13.03;12.53;;;4.40;99.90;;;;;;5113775;27;20580;-65
2023/12/19 10:56:47;;;;;;;12.50;12.00;;;4.40;99.90;;;;;;5109544;27;20250;-65
2023/12/19 10:59:20;;;;;;;13.43;12.83;;;4.40;99.90;;;;;;5112338;28;20763;-66
2023/12/19 11:01:50;;;;;;;12.70;12.20;;;4.50;99.90;;;;;;5116675;28;20201;-65
2023/12/19 11:04:25;;;;;;;12.37;11.87;;;4.60;99.90;;;;;;5124792;28;20198;-66
2023/12/19 11:06:56;;;;;;;12.80;12.30;;;4.90;99.90;;;;;;5123565;28;20201;-66
2023/12/19 11:09:29;;;;;;;13.27;12.70;;;5.10;99.90;;;;;;5122892;28;20235;-65
2023/12/19 11:11:58;;;;;;;12.53;12.03;;;5.40;99.90;;;;;;5116795;28;20202;-66
2023/12/19 11:14:26;;;;;;;14.10;13.50;;;5.60;99.90;;;;;;5120050;27;20477;-65
2023/12/19 11:16:57;;;;;;;12.63;12.13;;;5.70;99.90;;;;;;5119618;27;20308;-65
2023/12/19 11:19:30;;;;;;;13.57;12.97;;;5.80;99.90;;;;;;5110071;28;20222;-64
2023/12/19 11:22:04;;;;;;;12.97;12.47;;;5.90;99.90;;;;;;5110241;28;20194;-65
2023/12/19 11:24:36;;;;;;;13.03;12.53;;;5.90;99.90;;;;;;5112204;28;20201;-65
2023/12/19 11:27:11;;;;;;;13.07;12.47;;;5.90;99.90;;;;;;5115137;28;20209;-65
2023/12/19 11:29:45;;;;;;;12.67;12.17;;;5.90;99.90;;;;;;5111605;28;20217;-65
2023/12/19 11:32:40;;;;;;;13.23;12.73;;;5.80;99.90;;;;;;5112462;28;20367;-64
2023/12/19 11:35:11;;;;;;;12.73;12.23;;;5.80;99.90;;;;;;5113607;27;20223;-65
2023/12/19 11:37:39;;;;;;;13.07;12.57;;;5.80;99.90;;;;;;5113813;28;20205;-67
2023/12/19 11:40:08;;;;;;;12.60;12.10;;;5.80;99.90;;;;;;5109408;27;20611;-64
2023/12/19 11:42:46;;;;;;;13.43;12.93;;;5.80;99.90;;;;;;5105966;28;20205;-66
2023/12/19 11:45:38;;;;;;;13.03;12.53;;;5.70;99.90;;;;;;5106540;28;20543;-66
2023/12/19 11:48:35;;;;;;;12.50;12.00;;;5.80;99.90;;;;;;5116323;28;20321;-65
2023/12/19 11:51:02;;;;;;;13.17;12.67;;;5.80;99.90;;;;;;5110062;28;20350;-65
2023/12/19 11:53:29;;;;;;;13.23;12.67;;;5.70;99.90;;;;;;5107264;28;20250;-63
2023/12/19 11:56:05;;;;;;;13.60;12.90;;;5.70;99.90;;;;;;5110453;28;20252;-66
2023/12/19 11:58:33;;;;;;;13.20;12.70;;;5.60;99.90;;;;;;5113092;28;20240;-66
2023/12/19 12:01:00;;;;;;;13.93;13.33;;;5.40;99.90;;;;;;5115986;28;20308;-66
2023/12/19 12:03:28;;;;;;;12.30;11.80;;;5.40;99.90;;;;;;5111103;28;20206;-65
2023/12/19 12:05:55;;;;;;;11.80;11.30;;;5.50;99.90;;;;;;5108452;28;20205;-65
2023/12/19 12:08:22;;;;;;;12.10;11.60;;;5.40;99.90;;;;;;5108517;28;20234;-66
2023/12/19 12:11:02;;;;;;;12.43;11.93;;;5.40;99.90;;;;;;5106870;28;20198;-66
2023/12/19 12:13:30;;;;;;;12.60;12.10;;;5.60;99.90;;;;;;5113905;27;20210;-65
2023/12/19 12:15:59;;;;;;;12.57;12.07;;;5.70;99.90;;;;;;5113902;28;20206;-64
2023/12/19 12:18:27;;;;;;;13.50;13.00;;;5.70;99.90;;;;;;5116853;27;20741;-66
2023/12/19 12:20:56;;;;;;;12.77;12.27;;;5.70;99.90;;;;;;5120176;27;20273;-65
2023/12/19 12:23:23;;;;;;;12.00;11.53;;;5.60;99.90;;;;;;5112799;28;20206;-65
2023/12/19 12:25:56;;;;;;;12.13;11.63;;;5.50;99.90;;;;;;5113372;27;20198;-64
2023/12/19 12:28:26;;;;;;;12.33;11.83;;;5.70;99.90;;;;;;5113588;27;20316;-65
2023/12/19 12:30:57;;;;;;;13.27;12.77;;;5.90;99.90;;;;;;5112240;27;20294;-64
2023/12/19 12:33:25;;;;;;;12.97;12.47;;;6.00;99.90;;;;;;5114258;28;20225;-64
2023/12/19 12:35:52;;;;;;;13.47;12.97;;;6.10;99.90;;;;;;5109502;27;20210;-65
2023/12/19 12:38:20;;;;;;;13.30;12.80;;;6.20;99.90;;;;;;5104462;28;20218;-66
2023/12/19 12:40:55;;;;;;;13.10;12.60;;;6.20;99.90;;;;;;5112446;27;20209;-65
2023/12/19 12:43:35;;;;;;;13.23;12.73;;;6.30;99.90;;;;;;5108346;28;20205;-64
2023/12/19 12:46:08;;;;;;;13.27;12.77;;;6.40;99.90;;;;;;5109352;28;20235;-66